Time;durP1;ratioP1;P1;durP2;ratioP2;P2;SDS_P1;SDS_P2;PMS_P1;PMS_P2;Temp;Humidity;BMP_temperature;BMP_pressure;BME280_temperature;BME280_humidity;BME280_pressure;Samples;Min_cycle;Max_cycle;Signal;HPM_P1;HPM_P2
2021/09/03 00:00:56;;;;;;;2.61;2.41;;;;;;;20.37;70.93;100951.45;;;;-61
2021/09/03 00:03:56;;;;;;;2.73;2.42;;;;;;;20.37;70.95;100954.22;;;;-60
2021/09/03 00:06:56;;;;;;;2.74;2.53;;;;;;;20.36;70.96;100950.56;;;;-61
2021/09/03 00:09:56;;;;;;;2.90;2.60;;;;;;;20.35;70.98;100948.09;;;;-60
2021/09/03 00:12:56;;;;;;;3.14;2.39;;;;;;;20.36;70.94;100951.09;;;;-61
2021/09/03 00:15:56;;;;;;;2.95;2.61;;;;;;;20.35;70.93;100947.84;;;;-60
2021/09/03 00:18:56;;;;;;;2.64;2.44;;;;;;;20.35;70.95;100948.82;;;;-60
2021/09/03 00:21:56;;;;;;;3.41;2.70;;;;;;;20.36;70.97;100944.59;;;;-61
2021/09/03 00:24:56;;;;;;;2.77;2.50;;;;;;;20.35;70.92;100940.77;;;;-61
2021/09/03 00:27:56;;;;;;;2.91;2.51;;;;;;;20.34;70.94;100934.25;;;;-61
2021/09/03 00:30:56;;;;;;;2.67;2.47;;;;;;;20.34;70.95;100931.00;;;;-61
2021/09/03 00:33:56;;;;;;;2.65;2.45;;;;;;;20.33;70.97;100935.94;;;;-61
2021/09/03 00:36:56;;;;;;;3.13;2.46;;;;;;;20.33;70.94;100935.28;;;;-61
2021/09/03 00:39:56;;;;;;;2.87;2.57;;;;;;;20.33;70.95;100929.10;;;;-61
2021/09/03 00:42:56;;;;;;;2.89;2.53;;;;;;;20.33;71.00;100927.23;;;;-60
2021/09/03 00:45:56;;;;;;;2.71;2.51;;;;;;;20.33;70.95;100923.41;;;;-60
2021/09/03 00:48:56;;;;;;;3.62;2.65;;;;;;;20.32;70.98;100916.98;;;;-60
2021/09/03 00:51:56;;;;;;;2.73;2.47;;;;;;;20.33;70.88;100917.55;;;;-60
2021/09/03 00:54:56;;;;;;;3.07;2.45;;;;;;;20.32;70.93;100915.34;;;;-61
2021/09/03 00:57:56;;;;;;;3.37;2.35;;;;;;;20.31;70.97;100916.22;;;;-61
2021/09/03 01:00:56;;;;;;;3.06;2.54;;;;;;;20.30;70.98;100911.83;;;;-61
2021/09/03 01:03:56;;;;;;;2.72;2.49;;;;;;;20.29;70.99;100909.52;;;;-61
2021/09/03 01:06:56;;;;;;;2.65;2.45;;;;;;;20.30;70.97;100912.23;;;;-61
2021/09/03 01:09:56;;;;;;;2.66;2.46;;;;;;;20.30;70.92;100911.09;;;;-61
2021/09/03 01:12:56;;;;;;;2.80;2.60;;;;;;;20.29;70.96;100912.38;;;;-61
2021/09/03 01:15:56;;;;;;;2.75;2.51;;;;;;;20.29;70.93;100908.70;;;;-60
2021/09/03 01:18:56;;;;;;;2.51;2.31;;;;;;;20.28;70.97;100908.14;;;;-61
2021/09/03 01:21:56;;;;;;;2.68;2.48;;;;;;;20.28;70.91;100909.04;;;;-61
2021/09/03 01:24:56;;;;;;;2.61;2.41;;;;;;;20.28;70.99;100904.89;;;;-61
2021/09/03 01:27:56;;;;;;;2.70;2.50;;;;;;;20.27;71.02;100904.38;;;;-62
2021/09/03 01:30:56;;;;;;;2.51;2.31;;;;;;;20.26;71.01;100901.20;;;;-60
2021/09/03 01:33:57;;;;;;;2.61;2.41;;;;;;;20.27;71.00;100900.63;;;;-61
2021/09/03 01:36:56;;;;;;;2.76;2.47;;;;;;;20.27;70.95;100901.28;;;;-61
2021/09/03 01:39:56;;;;;;;2.70;2.50;;;;;;;20.26;71.02;100901.05;;;;-60
2021/09/03 01:42:56;;;;;;;2.90;2.47;;;;;;;20.26;71.02;100906.33;;;;-61
2021/09/03 01:45:56;;;;;;;3.03;2.22;;;;;;;20.25;71.01;100906.91;;;;-61
2021/09/03 01:48:56;;;;;;;2.71;2.47;;;;;;;20.26;71.03;100908.78;;;;-61
2021/09/03 01:51:56;;;;;;;2.67;2.43;;;;;;;20.25;71.10;100908.86;;;;-60
2021/09/03 01:54:56;;;;;;;2.61;2.41;;;;;;;20.25;70.94;100908.59;;;;-60
2021/09/03 01:57:58;;;;;;;2.61;2.34;;;;;;;20.24;71.02;100907.05;;;;-60
2021/09/03 02:00:56;;;;;;;2.84;2.61;;;;;;;20.24;71.03;100907.13;;;;-60
2021/09/03 02:03:56;;;;;;;2.63;2.41;;;;;;;20.24;71.04;100904.92;;;;-61
2021/09/03 02:06:56;;;;;;;2.58;2.38;;;;;;;20.24;71.02;100902.41;;;;-61
2021/09/03 02:09:56;;;;;;;2.69;2.49;;;;;;;20.23;71.12;100895.78;;;;-60
2021/09/03 02:12:56;;;;;;;2.72;2.52;;;;;;;20.23;71.03;100897.01;;;;-61
2021/09/03 02:15:56;;;;;;;3.50;2.55;;;;;;;20.23;70.99;100895.05;;;;-61
2021/09/03 02:18:58;;;;;;;2.58;2.38;;;;;;;20.23;70.96;100896.47;;;;-60
2021/09/03 02:21:56;;;;;;;2.57;2.37;;;;;;;20.23;71.02;100894.73;;;;-61
2021/09/03 02:24:56;;;;;;;2.61;2.41;;;;;;;20.23;71.03;100897.01;;;;-61
2021/09/03 02:27:56;;;;;;;2.71;2.50;;;;;;;20.23;71.03;100894.00;;;;-61
2021/09/03 02:30:56;;;;;;;2.59;2.39;;;;;;;20.21;71.00;100893.08;;;;-61
2021/09/03 02:33:56;;;;;;;2.62;2.42;;;;;;;20.22;70.99;100893.92;;;;-60
2021/09/03 02:36:56;;;;;;;2.75;2.52;;;;;;;20.22;71.01;100892.53;;;;-61
2021/09/03 02:39:56;;;;;;;2.69;2.47;;;;;;;20.21;71.04;100889.74;;;;-61
2021/09/03 02:42:56;;;;;;;2.69;2.49;;;;;;;20.21;71.03;100887.71;;;;-61
2021/09/03 02:45:56;;;;;;;2.63;2.43;;;;;;;20.20;70.99;100881.86;;;;-61
2021/09/03 02:48:56;;;;;;;2.79;2.55;;;;;;;20.21;70.96;100882.66;;;;-60
2021/09/03 02:51:56;;;;;;;2.51;2.31;;;;;;;20.20;71.03;100880.95;;;;-61
2021/09/03 02:54:56;;;;;;;2.56;2.36;;;;;;;20.20;71.01;100878.84;;;;-61
2021/09/03 02:57:56;;;;;;;2.77;2.56;;;;;;;20.20;71.01;100881.28;;;;-61
2021/09/03 03:00:56;;;;;;;2.70;2.50;;;;;;;20.21;70.98;100876.88;;;;-60
2021/09/03 03:03:56;;;;;;;2.65;2.45;;;;;;;20.20;71.05;100873.96;;;;-61
2021/09/03 03:06:56;;;;;;;4.77;2.51;;;;;;;20.19;71.04;100876.30;;;;-61
2021/09/03 03:09:56;;;;;;;2.69;2.49;;;;;;;20.18;71.07;100875.23;;;;-61
2021/09/03 03:12:58;;;;;;;2.81;2.61;;;;;;;20.19;70.99;100873.52;;;;-60
2021/09/03 03:15:56;;;;;;;2.84;2.48;;;;;;;20.19;70.99;100874.28;;;;-60
2021/09/03 03:18:56;;;;;;;2.69;2.45;;;;;;;20.19;71.01;100875.23;;;;-60
2021/09/03 03:21:57;;;;;;;2.84;2.33;;;;;;;20.19;70.97;100878.57;;;;-60
2021/09/03 03:24:56;;;;;;;2.94;2.66;;;;;;;20.18;70.97;100877.68;;;;-61
2021/09/03 03:27:56;;;;;;;2.59;2.39;;;;;;;20.18;70.96;100875.73;;;;-61
2021/09/03 03:30:56;;;;;;;2.74;2.54;;;;;;;20.18;70.94;100873.45;;;;-61
2021/09/03 03:33:56;;;;;;;2.75;2.55;;;;;;;20.18;70.94;100869.46;;;;-61
2021/09/03 03:36:56;;;;;;;2.75;2.55;;;;;;;20.19;70.91;100868.56;;;;-61
2021/09/03 03:39:56;;;;;;;3.02;2.61;;;;;;;20.19;70.89;100871.90;;;;-60
2021/09/03 03:42:56;;;;;;;2.70;2.50;;;;;;;20.18;70.94;100868.41;;;;-61
2021/09/03 03:45:57;;;;;;;2.80;2.60;;;;;;;20.18;70.89;100866.69;;;;-61
2021/09/03 03:48:56;;;;;;;2.58;2.38;;;;;;;20.19;70.92;100862.87;;;;-60
2021/09/03 03:51:56;;;;;;;2.85;2.60;;;;;;;20.18;70.95;100859.94;;;;-61
2021/09/03 03:54:56;;;;;;;2.64;2.44;;;;;;;20.17;70.96;100857.75;;;;-61
2021/09/03 03:57:56;;;;;;;2.59;2.39;;;;;;;20.18;70.94;100856.52;;;;-60
2021/09/03 04:00:56;;;;;;;2.74;2.54;;;;;;;20.18;70.94;100857.58;;;;-60
2021/09/03 04:03:56;;;;;;;2.85;2.59;;;;;;;20.17;70.95;100855.80;;;;-61
2021/09/03 04:06:56;;;;;;;2.78;2.57;;;;;;;20.17;70.96;100860.08;;;;-61
2021/09/03 04:09:56;;;;;;;2.69;2.49;;;;;;;20.17;70.98;100859.51;;;;-60
2021/09/03 04:12:56;;;;;;;2.62;2.41;;;;;;;20.16;70.99;100858.45;;;;-60
2021/09/03 04:15:56;;;;;;;2.79;2.50;;;;;;;20.17;70.91;100861.78;;;;-59
2021/09/03 04:18:56;;;;;;;2.61;2.41;;;;;;;20.16;70.93;100859.19;;;;-59
2021/09/03 04:21:56;;;;;;;2.81;2.53;;;;;;;20.17;70.89;100861.30;;;;-58
2021/09/03 04:24:56;;;;;;;2.60;2.40;;;;;;;20.16;70.96;100855.36;;;;-59
2021/09/03 04:27:56;;;;;;;2.84;2.51;;;;;;;20.16;70.90;100856.09;;;;-58
2021/09/03 04:30:56;;;;;;;2.60;2.40;;;;;;;20.16;70.92;100860.48;;;;-58
2021/09/03 04:33:56;;;;;;;2.87;2.67;;;;;;;20.16;70.90;100860.33;;;;-58
2021/09/03 04:36:56;;;;;;;2.78;2.58;;;;;;;20.16;70.91;100865.45;;;;-58
2021/09/03 04:39:56;;;;;;;2.71;2.51;;;;;;;20.16;70.91;100873.59;;;;-57
2021/09/03 04:42:56;;;;;;;2.95;2.68;;;;;;;20.15;70.94;100872.78;;;;-59
2021/09/03 04:45:56;;;;;;;2.58;2.38;;;;;;;20.15;70.90;100871.31;;;;-58
2021/09/03 04:48:56;;;;;;;2.71;2.50;;;;;;;20.14;70.93;100874.14;;;;-58
2021/09/03 04:51:56;;;;;;;2.59;2.39;;;;;;;20.14;70.97;100875.03;;;;-60
2021/09/03 04:54:56;;;;;;;2.82;2.62;;;;;;;20.13;70.95;100875.04;;;;-61
2021/09/03 04:57:56;;;;;;;2.69;2.49;;;;;;;20.13;70.91;100875.13;;;;-53
2021/09/03 05:00:56;;;;;;;2.55;2.35;;;;;;;20.13;70.95;100876.15;;;;-53
2021/09/03 05:03:56;;;;;;;2.59;2.39;;;;;;;20.13;71.00;100875.69;;;;-60
2021/09/03 05:06:56;;;;;;;2.68;2.47;;;;;;;20.13;71.02;100875.98;;;;-51
2021/09/03 05:09:56;;;;;;;2.50;2.30;;;;;;;20.12;70.99;100870.05;;;;-51
2021/09/03 05:12:56;;;;;;;2.88;2.60;;;;;;;20.10;71.00;100866.94;;;;-52
2021/09/03 05:15:56;;;;;;;2.66;2.37;;;;;;;20.10;71.10;100867.83;;;;-53
2021/09/03 05:18:57;;;;;;;2.99;2.70;;;;;;;20.11;70.98;100865.34;;;;-58
2021/09/03 05:21:56;;;;;;;2.63;2.43;;;;;;;20.10;71.04;100865.14;;;;-58
2021/09/03 05:24:56;;;;;;;2.74;2.54;;;;;;;20.10;71.04;100867.51;;;;-53
2021/09/03 05:27:56;;;;;;;2.77;2.50;;;;;;;20.08;71.08;100866.27;;;;-53
2021/09/03 05:30:56;;;;;;;2.50;2.30;;;;;;;20.09;71.08;100871.25;;;;-53
2021/09/03 05:33:56;;;;;;;2.61;2.41;;;;;;;20.08;71.07;100872.69;;;;-53
2021/09/03 05:36:56;;;;;;;2.73;2.52;;;;;;;20.08;71.08;100874.73;;;;-60
2021/09/03 05:39:58;;;;;;;2.69;2.49;;;;;;;20.09;71.07;100875.89;;;;-61
2021/09/03 05:42:56;;;;;;;2.65;2.45;;;;;;;20.08;71.13;100876.52;;;;-60
2021/09/03 05:45:56;;;;;;;2.67;2.47;;;;;;;20.08;71.11;100879.04;;;;-61
2021/09/03 05:48:56;;;;;;;2.67;2.47;;;;;;;20.08;71.12;100882.05;;;;-61
2021/09/03 05:51:56;;;;;;;2.49;2.29;;;;;;;20.07;71.14;100880.18;;;;-60
2021/09/03 05:54:56;;;;;;;2.65;2.45;;;;;;;20.07;71.11;100876.03;;;;-61
2021/09/03 05:57:56;;;;;;;3.01;2.59;;;;;;;20.07;71.14;100874.16;;;;-61
2021/09/03 06:00:56;;;;;;;2.70;2.50;;;;;;;20.07;71.11;100870.83;;;;-61
2021/09/03 06:03:56;;;;;;;2.59;2.39;;;;;;;20.07;71.11;100867.57;;;;-61
2021/09/03 06:06:56;;;;;;;2.57;2.37;;;;;;;20.06;71.12;100870.06;;;;-60
2021/09/03 06:09:56;;;;;;;2.61;2.41;;;;;;;20.07;71.14;100868.39;;;;-60
2021/09/03 06:12:56;;;;;;;2.80;2.60;;;;;;;20.06;71.15;100864.62;;;;-61
2021/09/03 06:15:56;;;;;;;2.70;2.50;;;;;;;20.06;71.09;100866.56;;;;-61
2021/09/03 06:18:56;;;;;;;2.73;2.53;;;;;;;20.07;71.14;100870.50;;;;-52
2021/09/03 06:21:57;;;;;;;2.60;2.40;;;;;;;20.07;71.11;100871.23;;;;-51
2021/09/03 06:24:56;;;;;;;2.53;2.33;;;;;;;20.07;71.13;100872.94;;;;-51
2021/09/03 06:27:56;;;;;;;2.56;2.36;;;;;;;20.06;71.14;100871.86;;;;-56
2021/09/03 06:30:56;;;;;;;10.14;4.55;;;;;;;20.11;67.94;100868.02;;;;-56
2021/09/03 06:33:56;;;;;;;6.43;5.00;;;;;;;20.07;66.04;100868.88;;;;-54
2021/09/03 06:36:56;;;;;;;10.71;5.20;;;;;;;20.00;66.09;100864.80;;;;-52
2021/09/03 06:39:56;;;;;;;13.33;4.55;;;;;;;19.96;67.31;100863.61;;;;-50
2021/09/03 06:42:56;;;;;;;9.43;4.89;;;;;;;19.98;68.02;100863.80;;;;-51
2021/09/03 06:45:56;;;;;;;14.19;4.88;;;;;;;19.98;67.99;100872.69;;;;-51
2021/09/03 06:48:56;;;;;;;6.61;4.38;;;;;;;20.00;68.38;100875.38;;;;-51
2021/09/03 06:51:56;;;;;;;5.69;4.51;;;;;;;20.01;68.39;100878.24;;;;-51
2021/09/03 06:54:56;;;;;;;7.25;4.34;;;;;;;20.02;68.51;100873.60;;;;-57
2021/09/03 06:57:56;;;;;;;8.79;4.64;;;;;;;20.03;68.58;100872.66;;;;-52
2021/09/03 07:00:56;;;;;;;6.81;4.57;;;;;;;20.03;68.82;100870.53;;;;-52
2021/09/03 07:03:56;;;;;;;5.41;4.54;;;;;;;20.04;68.83;100869.06;;;;-50
2021/09/03 07:06:56;;;;;;;4.95;4.45;;;;;;;20.04;68.90;100869.80;;;;-51
2021/09/03 07:09:56;;;;;;;5.67;4.43;;;;;;;20.05;69.10;100869.09;;;;-51
2021/09/03 07:12:56;;;;;;;5.33;4.29;;;;;;;20.05;69.24;100870.23;;;;-51
2021/09/03 07:15:56;;;;;;;4.97;4.38;;;;;;;20.05;69.27;100867.80;;;;-51
2021/09/03 07:18:56;;;;;;;5.49;4.13;;;;;;;20.05;69.31;100869.09;;;;-52
2021/09/03 07:21:56;;;;;;;5.64;4.27;;;;;;;20.06;69.32;100870.96;;;;-53
2021/09/03 07:24:56;;;;;;;4.88;4.23;;;;;;;20.06;69.46;100874.30;;;;-51
2021/09/03 07:27:56;;;;;;;4.76;4.31;;;;;;;20.07;69.56;100877.34;;;;-51
2021/09/03 07:30:56;;;;;;;4.95;4.25;;;;;;;20.07;69.55;100879.45;;;;-51
2021/09/03 07:33:56;;;;;;;4.44;3.87;;;;;;;20.08;69.63;100883.59;;;;-51
2021/09/03 07:36:56;;;;;;;6.11;4.14;;;;;;;20.07;69.56;100878.55;;;;-52
2021/09/03 07:39:56;;;;;;;4.64;4.09;;;;;;;20.08;69.68;100876.27;;;;-52
2021/09/03 07:42:56;;;;;;;5.40;4.12;;;;;;;20.08;69.76;100875.46;;;;-51
2021/09/03 07:45:57;;;;;;;5.57;4.36;;;;;;;20.09;69.70;100874.10;;;;-51
2021/09/03 07:48:56;;;;;;;4.79;4.13;;;;;;;20.09;69.74;100870.93;;;;-51
2021/09/03 07:51:56;;;;;;;5.79;4.07;;;;;;;20.12;69.74;100869.16;;;;-53
2021/09/03 07:54:56;;;;;;;4.33;3.79;;;;;;;20.12;69.84;100867.61;;;;-54
2021/09/03 07:57:56;;;;;;;4.47;4.04;;;;;;;20.14;69.93;100868.36;;;;-53
2021/09/03 08:00:56;;;;;;;4.86;3.89;;;;;;;20.16;70.01;100868.95;;;;-54
2021/09/03 08:03:56;;;;;;;6.12;3.94;;;;;;;20.17;70.05;100870.77;;;;-60
2021/09/03 08:06:56;;;;;;;4.37;3.83;;;;;;;20.18;70.10;100866.45;;;;-60
2021/09/03 08:09:56;;;;;;;4.65;3.93;;;;;;;20.17;70.08;100867.34;;;;-60
2021/09/03 08:12:56;;;;;;;6.57;3.83;;;;;;;20.17;70.11;100869.95;;;;-58
2021/09/03 08:15:56;;;;;;;4.91;4.02;;;;;;;20.17;70.11;100871.09;;;;-58
2021/09/03 08:18:56;;;;;;;5.59;4.11;;;;;;;20.17;70.12;100871.72;;;;-60
2021/09/03 08:21:56;;;;;;;5.89;3.99;;;;;;;20.19;70.15;100868.31;;;;-52
2021/09/03 08:24:56;;;;;;;4.25;3.85;;;;;;;20.19;70.18;100871.20;;;;-56
2021/09/03 08:27:56;;;;;;;5.85;3.83;;;;;;;20.21;70.19;100869.59;;;;-51
2021/09/03 08:30:56;;;;;;;6.82;4.33;;;;;;;20.25;70.26;100866.92;;;;-55
2021/09/03 08:33:56;;;;;;;12.16;4.17;;;;;;;20.27;70.39;100863.03;;;;-52
2021/09/03 08:36:56;;;;;;;8.88;4.18;;;;;;;20.29;70.47;100863.16;;;;-49
2021/09/03 08:39:56;;;;;;;13.10;4.31;;;;;;;20.32;70.60;100865.62;;;;-50
2021/09/03 08:42:56;;;;;;;11.17;4.18;;;;;;;20.34;70.94;100865.96;;;;-52
2021/09/03 08:45:56;;;;;;;11.85;4.15;;;;;;;20.34;70.94;100868.81;;;;-52
2021/09/03 08:48:56;;;;;;;8.73;4.13;;;;;;;20.34;70.77;100864.58;;;;-54
2021/09/03 08:51:56;;;;;;;14.85;4.47;;;;;;;20.37;71.18;100864.92;;;;-55
2021/09/03 08:54:56;;;;;;;8.52;4.23;;;;;;;20.39;71.03;100863.95;;;;-57
2021/09/03 08:57:56;;;;;;;18.55;4.49;;;;;;;20.40;71.05;100857.23;;;;-52
2021/09/03 09:00:56;;;;;;;17.23;4.73;;;;;;;20.43;71.14;100858.22;;;;-52
2021/09/03 09:03:56;;;;;;;14.21;4.55;;;;;;;20.44;71.00;100857.02;;;;-53
2021/09/03 09:06:56;;;;;;;12.48;4.49;;;;;;;20.45;71.32;100863.77;;;;-60
2021/09/03 09:09:56;;;;;;;20.77;5.27;;;;;;;20.46;71.12;100860.75;;;;-60
2021/09/03 09:12:56;;;;;;;11.13;4.47;;;;;;;20.48;71.26;100858.84;;;;-58
2021/09/03 09:15:56;;;;;;;12.45;4.69;;;;;;;20.49;71.65;100859.25;;;;-54
2021/09/03 09:18:56;;;;;;;18.69;4.90;;;;;;;20.52;71.67;100853.40;;;;-53
2021/09/03 09:21:56;;;;;;;16.57;5.01;;;;;;;20.53;71.82;100859.20;;;;-51
2021/09/03 09:24:56;;;;;;;19.52;5.16;;;;;;;20.55;72.32;100854.58;;;;-49
2021/09/03 09:27:56;;;;;;;17.17;4.58;;;;;;;20.55;71.68;100851.32;;;;-54
2021/09/03 09:30:56;;;;;;;16.80;4.69;;;;;;;20.57;71.99;100847.67;;;;-51
2021/09/03 09:33:57;;;;;;;19.01;5.25;;;;;;;20.60;72.28;100848.78;;;;-49
2021/09/03 09:36:56;;;;;;;17.44;4.85;;;;;;;20.60;71.99;100845.03;;;;-51
2021/09/03 09:39:56;;;;;;;21.02;4.87;;;;;;;20.61;72.38;100842.61;;;;-49
2021/09/03 09:42:56;;;;;;;12.08;4.47;;;;;;;20.62;71.95;100837.80;;;;-52
2021/09/03 09:45:56;;;;;;;17.27;4.74;;;;;;;20.64;72.18;100832.94;;;;-50
2021/09/03 09:48:57;;;;;;;17.87;4.70;;;;;;;20.64;72.36;100833.74;;;;-51
2021/09/03 09:51:57;;;;;;;22.46;4.81;;;;;;;20.65;72.16;100827.81;;;;-51
2021/09/03 09:54:56;;;;;;;15.33;4.93;;;;;;;20.65;71.86;100826.03;;;;-51
2021/09/03 09:57:56;;;;;;;16.61;4.49;;;;;;;20.64;71.89;100829.09;;;;-49
2021/09/03 10:00:56;;;;;;;11.04;4.67;;;;;;;20.63;71.72;100828.78;;;;-47
2021/09/03 10:03:56;;;;;;;14.37;4.51;;;;;;;20.63;71.68;100824.55;;;;-50
2021/09/03 10:06:57;;;;;;;19.62;5.02;;;;;;;20.65;71.77;100819.73;;;;-51
2021/09/03 10:09:56;;;;;;;15.35;5.06;;;;;;;20.66;71.80;100817.80;;;;-54
2021/09/03 10:12:56;;;;;;;14.97;4.75;;;;;;;20.68;71.79;100817.65;;;;-56
2021/09/03 10:15:58;;;;;;;13.82;4.67;;;;;;;20.68;71.96;100814.55;;;;-50
2021/09/03 10:18:56;;;;;;;21.79;4.79;;;;;;;20.69;71.89;100808.30;;;;-50
2021/09/03 10:21:57;;;;;;;15.58;4.38;;;;;;;20.72;72.04;100807.98;;;;-53
2021/09/03 10:24:56;;;;;;;14.24;4.63;;;;;;;20.72;71.77;100809.45;;;;-52
2021/09/03 10:27:56;;;;;;;19.12;4.62;;;;;;;20.73;71.97;100805.31;;;;-56
2021/09/03 10:30:56;;;;;;;14.67;4.55;;;;;;;20.73;71.79;100800.92;;;;-60
2021/09/03 10:33:56;;;;;;;16.67;4.60;;;;;;;20.74;71.74;100796.44;;;;-53
2021/09/03 10:36:56;;;;;;;22.13;4.93;;;;;;;20.76;71.80;100790.18;;;;-62
2021/09/03 10:39:56;;;;;;;22.19;4.97;;;;;;;20.77;71.79;100784.95;;;;-50
2021/09/03 10:42:59;;;;;;;15.00;4.55;;;;;;;20.78;71.88;100790.03;;;;-50
2021/09/03 10:45:56;;;;;;;17.63;4.52;;;;;;;20.78;71.88;100783.92;;;;-50
2021/09/03 10:48:56;;;;;;;18.47;4.53;;;;;;;20.79;71.69;100779.95;;;;-50
2021/09/03 10:51:56;;;;;;;13.99;4.53;;;;;;;20.80;71.63;100782.80;;;;-63
2021/09/03 10:54:56;;;;;;;14.79;4.32;;;;;;;20.80;71.59;100780.19;;;;-55
2021/09/03 10:57:56;;;;;;;12.54;4.33;;;;;;;20.80;71.69;100772.05;;;;-56
2021/09/03 11:00:56;;;;;;;11.92;4.43;;;;;;;20.79;71.49;100770.98;;;;-53
2021/09/03 11:04:56;;;;;;;12.93;4.39;;;;;;;20.78;71.50;100772.03;;;;-58
2021/09/03 11:07:57;;;;;;;12.31;4.40;;;;;;;20.77;71.52;100770.13;;;;-58
2021/09/03 11:10:56;;;;;;;15.23;4.44;;;;;;;20.75;71.49;100769.98;;;;-58
2021/09/03 11:13:56;;;;;;;13.72;4.24;;;;;;;20.74;71.46;100764.35;;;;-58
2021/09/03 11:16:56;;;;;;;12.73;4.25;;;;;;;20.72;71.31;100759.37;;;;-59
2021/09/03 11:19:56;;;;;;;8.57;4.22;;;;;;;20.72;71.30;100760.91;;;;-63
2021/09/03 11:22:56;;;;;;;10.85;4.04;;;;;;;20.71;71.23;100756.50;;;;-62
2021/09/03 11:25:56;;;;;;;12.05;4.11;;;;;;;20.70;71.22;100757.56;;;;-51
2021/09/03 11:28:56;;;;;;;9.82;4.31;;;;;;;20.69;71.22;100754.63;;;;-58
2021/09/03 11:31:56;;;;;;;13.57;4.25;;;;;;;20.68;71.11;100749.89;;;;-63
2021/09/03 11:34:56;;;;;;;9.01;4.15;;;;;;;20.67;71.19;100750.88;;;;-63
2021/09/03 11:37:56;;;;;;;7.21;3.97;;;;;;;20.66;71.13;100743.13;;;;-62
2021/09/03 11:40:56;;;;;;;10.62;4.05;;;;;;;20.66;71.18;100740.11;;;;-58
2021/09/03 11:43:56;;;;;;;11.66;4.10;;;;;;;20.64;71.12;100738.22;;;;-53
2021/09/03 11:46:56;;;;;;;6.50;3.79;;;;;;;20.64;71.10;100735.20;;;;-57
2021/09/03 11:49:56;;;;;;;11.23;4.23;;;;;;;20.64;71.13;100734.23;;;;-58
2021/09/03 11:52:56;;;;;;;8.06;3.70;;;;;;;20.63;71.08;100734.80;;;;-58
2021/09/03 11:55:56;;;;;;;7.41;3.79;;;;;;;20.63;71.07;100730.73;;;;-58
2021/09/03 11:58:56;;;;;;;6.57;3.73;;;;;;;20.62;71.03;100729.58;;;;-58
2021/09/03 12:01:56;;;;;;;7.08;3.93;;;;;;;20.62;70.98;100725.91;;;;-57
2021/09/03 12:04:56;;;;;;;8.13;3.83;;;;;;;20.61;70.95;100722.41;;;;-58
2021/09/03 12:07:56;;;;;;;8.27;3.93;;;;;;;20.61;70.98;100719.32;;;;-58
2021/09/03 12:10:56;;;;;;;9.21;3.60;;;;;;;20.62;70.98;100718.17;;;;-59
2021/09/03 12:13:56;;;;;;;7.67;3.88;;;;;;;20.61;70.96;100714.44;;;;-50
2021/09/03 12:16:56;;;;;;;8.82;4.08;;;;;;;20.62;71.00;100713.12;;;;-47
2021/09/03 12:19:56;;;;;;;6.07;3.68;;;;;;;20.65;71.02;100709.14;;;;-50
2021/09/03 12:22:56;;;;;;;8.89;3.64;;;;;;;20.66;71.18;100710.38;;;;-53
2021/09/03 12:25:56;;;;;;;11.33;3.60;;;;;;;20.68;71.28;100707.70;;;;-52
2021/09/03 12:28:56;;;;;;;16.29;4.12;;;;;;;20.68;71.32;100705.75;;;;-53
2021/09/03 12:31:56;;;;;;;13.21;3.83;;;;;;;20.71;71.23;100705.75;;;;-60
2021/09/03 12:34:56;;;;;;;14.78;4.10;;;;;;;20.72;71.33;100701.78;;;;-52
2021/09/03 12:37:56;;;;;;;10.09;3.70;;;;;;;20.72;71.27;100698.77;;;;-55
2021/09/03 12:40:56;;;;;;;9.39;4.08;;;;;;;20.74;71.39;100701.38;;;;-51
2021/09/03 12:43:57;;;;;;;14.72;3.87;;;;;;;20.75;71.32;100699.70;;;;-52
2021/09/03 12:46:56;;;;;;;10.91;3.90;;;;;;;20.77;71.43;100696.26;;;;-53
2021/09/03 12:49:56;;;;;;;12.29;3.69;;;;;;;20.78;71.56;100693.51;;;;-52
2021/09/03 12:52:56;;;;;;;13.99;3.86;;;;;;;20.79;71.50;100690.56;;;;-52
2021/09/03 12:55:56;;;;;;;14.07;3.80;;;;;;;20.81;71.55;100688.63;;;;-54
2021/09/03 12:58:56;;;;;;;17.01;4.08;;;;;;;20.82;71.65;100687.82;;;;-54
2021/09/03 13:01:56;;;;;;;14.79;3.87;;;;;;;20.84;71.57;100684.17;;;;-54
2021/09/03 13:04:56;;;;;;;10.44;3.89;;;;;;;20.84;71.61;100683.92;;;;-60
2021/09/03 13:07:56;;;;;;;12.95;3.89;;;;;;;20.85;71.81;100677.97;;;;-59
2021/09/03 13:10:56;;;;;;;9.67;3.84;;;;;;;20.86;71.95;100679.70;;;;-55
2021/09/03 13:13:56;;;;;;;10.31;3.81;;;;;;;20.87;71.77;100675.86;;;;-56
2021/09/03 13:16:58;;;;;;;16.63;3.96;;;;;;;20.88;71.66;100672.95;;;;-56
2021/09/03 13:19:56;;;;;;;14.37;3.89;;;;;;;20.88;71.74;100669.28;;;;-59
2021/09/03 13:22:56;;;;;;;9.65;3.49;;;;;;;20.90;71.72;100665.87;;;;-56
2021/09/03 13:25:56;;;;;;;10.15;3.85;;;;;;;20.91;71.84;100663.42;;;;-56
2021/09/03 13:28:56;;;;;;;15.53;4.07;;;;;;;20.91;71.72;100656.73;;;;-56
2021/09/03 13:31:56;;;;;;;16.25;3.85;;;;;;;20.91;72.09;100651.69;;;;-57
2021/09/03 13:34:56;;;;;;;15.93;4.06;;;;;;;20.91;71.62;100651.44;;;;-51
2021/09/03 13:37:56;;;;;;;17.20;4.21;;;;;;;20.92;71.55;100644.69;;;;-53
2021/09/03 13:40:56;;;;;;;17.27;4.13;;;;;;;20.93;71.69;100637.11;;;;-51
2021/09/03 13:43:56;;;;;;;9.01;3.49;;;;;;;20.93;71.60;100633.20;;;;-53
2021/09/03 13:46:56;;;;;;;15.95;4.07;;;;;;;20.95;71.74;100628.56;;;;-52
2021/09/03 13:49:56;;;;;;;11.27;3.54;;;;;;;20.95;71.79;100627.34;;;;-51
2021/09/03 13:52:56;;;;;;;16.74;4.08;;;;;;;20.97;71.86;100623.84;;;;-54
2021/09/03 13:55:57;;;;;;;14.95;3.52;;;;;;;20.95;71.80;100618.54;;;;-58
2021/09/03 13:58:56;;;;;;;13.06;3.92;;;;;;;20.94;71.56;100615.61;;;;-58
2021/09/03 14:01:56;;;;;;;16.99;3.89;;;;;;;20.94;71.61;100613.72;;;;-51
2021/09/03 14:04:56;;;;;;;16.17;3.95;;;;;;;20.93;71.76;100610.47;;;;-53
2021/09/03 14:07:56;;;;;;;12.49;4.01;;;;;;;20.93;71.75;100609.16;;;;-51
2021/09/03 14:10:56;;;;;;;12.19;3.87;;;;;;;20.92;71.61;100606.97;;;;-46
2021/09/03 14:13:56;;;;;;;9.17;3.63;;;;;;;20.91;71.53;100605.98;;;;-48
2021/09/03 14:16:56;;;;;;;9.13;3.61;;;;;;;20.91;71.44;100603.95;;;;-50
2021/09/03 14:19:56;;;;;;;12.55;3.71;;;;;;;20.92;71.31;100599.37;;;;-51
2021/09/03 14:22:56;;;;;;;7.34;3.61;;;;;;;20.90;71.34;100596.70;;;;-51
2021/09/03 14:25:56;;;;;;;10.79;3.64;;;;;;;20.89;71.28;100590.91;;;;-51
2021/09/03 14:28:56;;;;;;;6.39;3.43;;;;;;;20.87;71.27;100590.56;;;;-51
2021/09/03 14:31:56;;;;;;;10.43;3.61;;;;;;;20.87;71.19;100587.63;;;;-49
2021/09/03 14:39:04;;;;;;;5.89;3.31;;;;;;;20.89;71.28;100580.23;;;;-53
2021/09/03 14:41:56;;;;;;;8.24;3.56;;;;;;;20.89;71.18;100575.42;;;;-51
2021/09/03 14:44:56;;;;;;;9.67;3.46;;;;;;;20.90;71.23;100576.66;;;;-51
2021/09/03 14:47:56;;;;;;;8.93;3.42;;;;;;;20.91;71.27;100573.06;;;;-52
2021/09/03 14:50:56;;;;;;;11.18;3.31;;;;;;;20.91;71.31;100565.73;;;;-58
2021/09/03 14:53:56;;;;;;;7.46;3.16;;;;;;;20.90;71.07;100565.83;;;;-57
2021/09/03 14:56:56;;;;;;;8.05;3.34;;;;;;;20.89;71.22;100564.26;;;;-53
2021/09/03 14:59:56;;;;;;;7.53;3.35;;;;;;;20.88;71.26;100566.39;;;;-53
2021/09/03 15:02:56;;;;;;;7.02;3.20;;;;;;;20.87;71.13;100560.68;;;;-51
2021/09/03 15:05:56;;;;;;;7.94;3.50;;;;;;;20.87;71.25;100554.80;;;;-50
2021/09/03 15:08:56;;;;;;;6.95;3.24;;;;;;;20.87;71.22;100550.00;;;;-47
2021/09/03 15:11:56;;;;;;;9.81;3.30;;;;;;;20.88;71.34;100549.53;;;;-65
2021/09/03 15:14:56;;;;;;;7.07;3.35;;;;;;;20.89;71.29;100545.20;;;;-67
2021/09/03 15:17:56;;;;;;;13.30;3.31;;;;;;;20.90;71.33;100548.96;;;;-63
2021/09/03 15:20:56;;;;;;;6.85;3.10;;;;;;;20.90;71.22;100549.13;;;;-64
2021/09/03 15:23:56;;;;;;;6.93;3.25;;;;;;;20.90;71.19;100541.47;;;;-65
2021/09/03 15:26:56;;;;;;;5.04;2.93;;;;;;;20.91;71.15;100542.76;;;;-59
2021/09/03 15:29:56;;;;;;;8.59;3.40;;;;;;;20.92;71.24;100541.31;;;;-59
2021/09/03 15:32:56;;;;;;;11.04;3.15;;;;;;;20.91;71.21;100535.92;;;;-58
2021/09/03 15:35:56;;;;;;;7.69;3.09;;;;;;;20.92;71.23;100537.89;;;;-57
2021/09/03 15:38:56;;;;;;;6.52;3.04;;;;;;;20.91;71.29;100536.33;;;;-57
2021/09/03 15:41:59;;;;;;;6.81;2.86;;;;;;;20.91;71.23;100536.73;;;;-61
2021/09/03 15:44:56;;;;;;;5.80;3.14;;;;;;;20.90;71.27;100532.34;;;;-60
2021/09/03 15:47:56;;;;;;;7.95;3.17;;;;;;;20.91;71.25;100526.88;;;;-54
2021/09/03 15:50:56;;;;;;;7.00;3.07;;;;;;;20.91;71.29;100521.25;;;;-50
2021/09/03 15:53:56;;;;;;;5.79;2.89;;;;;;;20.92;71.28;100521.27;;;;-52
2021/09/03 15:57:00;;;;;;;5.59;2.94;;;;;;;20.91;71.32;100519.78;;;;-51
2021/09/03 15:59:56;;;;;;;5.97;2.89;;;;;;;20.93;71.32;100520.37;;;;-48
2021/09/03 16:02:56;;;;;;;6.31;3.01;;;;;;;20.93;71.24;100513.11;;;;-57
2021/09/03 16:05:56;;;;;;;4.28;2.92;;;;;;;20.94;71.36;100515.09;;;;-58
2021/09/03 16:08:56;;;;;;;5.97;3.01;;;;;;;20.94;71.36;100510.91;;;;-60
2021/09/03 16:11:56;;;;;;;6.01;3.12;;;;;;;20.94;71.34;100508.95;;;;-56
2021/09/03 16:14:57;;;;;;;5.33;2.93;;;;;;;20.95;71.23;100509.29;;;;-51
2021/09/03 16:17:56;;;;;;;9.91;3.09;;;;;;;20.94;71.36;100504.48;;;;-50
2021/09/03 16:20:56;;;;;;;7.59;3.09;;;;;;;20.96;71.36;100508.23;;;;-60
2021/09/03 16:23:56;;;;;;;5.93;3.04;;;;;;;20.98;71.14;100503.92;;;;-59
2021/09/03 16:26:56;;;;;;;6.53;2.80;;;;;;;20.99;71.41;100500.25;;;;-58
2021/09/03 16:29:56;;;;;;;5.67;2.91;;;;;;;20.99;71.34;100493.33;;;;-58
2021/09/03 16:32:56;;;;;;;4.86;2.77;;;;;;;20.99;71.41;100494.22;;;;-62
2021/09/03 16:35:56;;;;;;;4.82;2.71;;;;;;;20.98;71.31;100492.27;;;;-62
2021/09/03 16:38:56;;;;;;;5.89;2.82;;;;;;;20.98;71.39;100493.17;;;;-60
2021/09/03 16:41:56;;;;;;;5.45;2.87;;;;;;;20.98;71.39;100490.97;;;;-61